sensor_id;sensor_type;location;lat;lon;timestamp;P1;durP1;ratioP1;P2;durP2;ratioP2
22851;SDS011;11592;45.460;9.240;2023-05-19T00:02:24;21.73;;;7.30;;
22851;SDS011;11592;45.460;9.240;2023-05-19T00:04:51;29.13;;;7.47;;
22851;SDS011;11592;45.460;9.240;2023-05-19T00:07:18;22.40;;;7.32;;
22851;SDS011;11592;45.460;9.240;2023-05-19T00:09:51;30.10;;;7.85;;
22851;SDS011;11592;45.460;9.240;2023-05-19T00:12:18;27.17;;;8.35;;
22851;SDS011;11592;45.460;9.240;2023-05-19T00:14:45;28.75;;;7.93;;
22851;SDS011;11592;45.460;9.240;2023-05-19T00:17:12;20.95;;;7.35;;
22851;SDS011;11592;45.460;9.240;2023-05-19T00:19:39;14.30;;;6.35;;
22851;SDS011;11592;45.460;9.240;2023-05-19T00:22:06;11.18;;;6.82;;
22851;SDS011;11592;45.460;9.240;2023-05-19T00:24:33;12.43;;;6.88;;
22851;SDS011;11592;45.460;9.240;2023-05-19T00:27:00;8.75;;;5.78;;
22851;SDS011;11592;45.460;9.240;2023-05-19T00:29:27;18.38;;;7.05;;
22851;SDS011;11592;45.460;9.240;2023-05-19T00:31:55;10.40;;;6.45;;
22851;SDS011;11592;45.460;9.240;2023-05-19T00:34:21;11.75;;;6.90;;
22851;SDS011;11592;45.460;9.240;2023-05-19T00:36:48;10.30;;;6.38;;
22851;SDS011;11592;45.460;9.240;2023-05-19T00:39:15;12.30;;;6.13;;
22851;SDS011;11592;45.460;9.240;2023-05-19T00:41:42;11.73;;;7.05;;
22851;SDS011;11592;45.460;9.240;2023-05-19T00:44:09;9.65;;;6.70;;
22851;SDS011;11592;45.460;9.240;2023-05-19T00:46:36;10.73;;;6.75;;
22851;SDS011;11592;45.460;9.240;2023-05-19T00:49:03;10.55;;;6.03;;
22851;SDS011;11592;45.460;9.240;2023-05-19T00:51:30;11.88;;;7.07;;
22851;SDS011;11592;45.460;9.240;2023-05-19T00:53:57;11.25;;;7.05;;
22851;SDS011;11592;45.460;9.240;2023-05-19T00:56:23;9.75;;;6.78;;
22851;SDS011;11592;45.460;9.240;2023-05-19T00:58:52;11.52;;;6.07;;
22851;SDS011;11592;45.460;9.240;2023-05-19T01:01:20;9.73;;;5.88;;
22851;SDS011;11592;45.460;9.240;2023-05-19T01:03:47;9.52;;;5.70;;
22851;SDS011;11592;45.460;9.240;2023-05-19T01:06:14;7.22;;;5.22;;
22851;SDS011;11592;45.460;9.240;2023-05-19T01:08:44;8.48;;;5.43;;
22851;SDS011;11592;45.460;9.240;2023-05-19T01:11:11;12.70;;;5.72;;
22851;SDS011;11592;45.460;9.240;2023-05-19T01:13:38;8.52;;;5.40;;
22851;SDS011;11592;45.460;9.240;2023-05-19T01:19:25;8.98;;;4.63;;
22851;SDS011;11592;45.460;9.240;2023-05-19T01:24:55;7.60;;;4.97;;
22851;SDS011;11592;45.460;9.240;2023-05-19T01:33:03;8.82;;;4.65;;
22851;SDS011;11592;45.460;9.240;2023-05-19T01:35:34;6.78;;;4.55;;
22851;SDS011;11592;45.460;9.240;2023-05-19T01:38:02;6.60;;;4.50;;
22851;SDS011;11592;45.460;9.240;2023-05-19T01:40:32;8.10;;;4.50;;
22851;SDS011;11592;45.460;9.240;2023-05-19T01:43:01;6.70;;;4.70;;
22851;SDS011;11592;45.460;9.240;2023-05-19T01:45:29;6.95;;;4.88;;
22851;SDS011;11592;45.460;9.240;2023-05-19T01:47:59;7.72;;;4.65;;
22851;SDS011;11592;45.460;9.240;2023-05-19T01:50:27;7.38;;;4.85;;
22851;SDS011;11592;45.460;9.240;2023-05-19T01:52:56;8.38;;;5.10;;
22851;SDS011;11592;45.460;9.240;2023-05-19T01:55:23;8.52;;;5.30;;
22851;SDS011;11592;45.460;9.240;2023-05-19T01:58:09;8.10;;;5.15;;
22851;SDS011;11592;45.460;9.240;2023-05-19T02:06:40;8.57;;;5.22;;
22851;SDS011;11592;45.460;9.240;2023-05-19T02:17:33;10.83;;;7.13;;
22851;SDS011;11592;45.460;9.240;2023-05-19T02:20:03;12.13;;;7.72;;
22851;SDS011;11592;45.460;9.240;2023-05-19T02:22:30;14.98;;;8.23;;
22851;SDS011;11592;45.460;9.240;2023-05-19T02:24:57;12.27;;;8.35;;
22851;SDS011;11592;45.460;9.240;2023-05-19T02:27:24;13.43;;;8.07;;
22851;SDS011;11592;45.460;9.240;2023-05-19T02:29:51;12.55;;;8.10;;
22851;SDS011;11592;45.460;9.240;2023-05-19T02:32:19;12.20;;;8.02;;
22851;SDS011;11592;45.460;9.240;2023-05-19T02:34:46;12.43;;;7.93;;
22851;SDS011;11592;45.460;9.240;2023-05-19T02:37:13;10.57;;;7.57;;
22851;SDS011;11592;45.460;9.240;2023-05-19T02:39:41;13.20;;;8.40;;
22851;SDS011;11592;45.460;9.240;2023-05-19T02:42:08;9.45;;;7.28;;
22851;SDS011;11592;45.460;9.240;2023-05-19T02:44:35;11.63;;;8.30;;
22851;SDS011;11592;45.460;9.240;2023-05-19T02:47:02;12.55;;;8.93;;
22851;SDS011;11592;45.460;9.240;2023-05-19T02:49:29;11.43;;;8.13;;
22851;SDS011;11592;45.460;9.240;2023-05-19T02:52:03;11.65;;;7.97;;
22851;SDS011;11592;45.460;9.240;2023-05-19T02:54:31;12.45;;;7.47;;
22851;SDS011;11592;45.460;9.240;2023-05-19T02:56:59;12.30;;;7.70;;
22851;SDS011;11592;45.460;9.240;2023-05-19T02:59:26;12.48;;;7.55;;
22851;SDS011;11592;45.460;9.240;2023-05-19T03:01:54;10.07;;;7.35;;
22851;SDS011;11592;45.460;9.240;2023-05-19T03:04:22;10.82;;;7.45;;
22851;SDS011;11592;45.460;9.240;2023-05-19T03:06:49;10.30;;;7.18;;
22851;SDS011;11592;45.460;9.240;2023-05-19T03:09:16;11.98;;;7.00;;
22851;SDS011;11592;45.460;9.240;2023-05-19T03:11:43;10.20;;;7.45;;
22851;SDS011;11592;45.460;9.240;2023-05-19T03:14:10;10.45;;;7.32;;
22851;SDS011;11592;45.460;9.240;2023-05-19T03:16:39;12.52;;;8.10;;
22851;SDS011;11592;45.460;9.240;2023-05-19T03:19:07;11.00;;;7.72;;
22851;SDS011;11592;45.460;9.240;2023-05-19T03:21:34;13.00;;;7.97;;
22851;SDS011;11592;45.460;9.240;2023-05-19T03:24:01;12.85;;;8.27;;
22851;SDS011;11592;45.460;9.240;2023-05-19T03:26:28;13.10;;;7.90;;
22851;SDS011;11592;45.460;9.240;2023-05-19T03:28:55;11.70;;;8.55;;
22851;SDS011;11592;45.460;9.240;2023-05-19T03:31:22;14.43;;;7.60;;
22851;SDS011;11592;45.460;9.240;2023-05-19T03:33:49;12.02;;;7.63;;
22851;SDS011;11592;45.460;9.240;2023-05-19T03:36:15;9.55;;;7.10;;
22851;SDS011;11592;45.460;9.240;2023-05-19T03:38:42;13.00;;;7.70;;
22851;SDS011;11592;45.460;9.240;2023-05-19T03:41:09;11.55;;;7.90;;
22851;SDS011;11592;45.460;9.240;2023-05-19T03:43:36;11.15;;;7.93;;
22851;SDS011;11592;45.460;9.240;2023-05-19T03:46:03;12.95;;;8.65;;
22851;SDS011;11592;45.460;9.240;2023-05-19T03:48:29;13.75;;;8.38;;
22851;SDS011;11592;45.460;9.240;2023-05-19T03:50:56;14.88;;;8.60;;
22851;SDS011;11592;45.460;9.240;2023-05-19T03:53:23;12.40;;;8.52;;
22851;SDS011;11592;45.460;9.240;2023-05-19T03:55:51;16.52;;;8.77;;
22851;SDS011;11592;45.460;9.240;2023-05-19T03:58:18;12.90;;;8.73;;
22851;SDS011;11592;45.460;9.240;2023-05-19T04:00:45;11.20;;;7.50;;
22851;SDS011;11592;45.460;9.240;2023-05-19T04:03:11;12.45;;;7.50;;
22851;SDS011;11592;45.460;9.240;2023-05-19T04:05:38;12.40;;;7.25;;
22851;SDS011;11592;45.460;9.240;2023-05-19T04:08:05;9.55;;;6.85;;
22851;SDS011;11592;45.460;9.240;2023-05-19T04:10:32;11.45;;;7.20;;
22851;SDS011;11592;45.460;9.240;2023-05-19T04:12:59;11.43;;;6.80;;
22851;SDS011;11592;45.460;9.240;2023-05-19T04:15:26;11.00;;;6.28;;
22851;SDS011;11592;45.460;9.240;2023-05-19T04:17:53;8.43;;;6.15;;
22851;SDS011;11592;45.460;9.240;2023-05-19T04:20:20;11.55;;;5.72;;
22851;SDS011;11592;45.460;9.240;2023-05-19T04:22:47;9.00;;;5.70;;
22851;SDS011;11592;45.460;9.240;2023-05-19T04:25:14;9.27;;;5.72;;
22851;SDS011;11592;45.460;9.240;2023-05-19T04:27:41;8.65;;;5.05;;
22851;SDS011;11592;45.460;9.240;2023-05-19T04:30:08;10.73;;;5.10;;
22851;SDS011;11592;45.460;9.240;2023-05-19T04:32:35;8.35;;;4.65;;
22851;SDS011;11592;45.460;9.240;2023-05-19T04:35:02;9.05;;;4.82;;
22851;SDS011;11592;45.460;9.240;2023-05-19T04:37:30;6.70;;;5.13;;
22851;SDS011;11592;45.460;9.240;2023-05-19T04:39:57;8.25;;;5.03;;
22851;SDS011;11592;45.460;9.240;2023-05-19T04:42:23;10.85;;;5.28;;
22851;SDS011;11592;45.460;9.240;2023-05-19T04:44:51;8.85;;;5.00;;
22851;SDS011;11592;45.460;9.240;2023-05-19T04:47:18;5.97;;;4.05;;
22851;SDS011;11592;45.460;9.240;2023-05-19T04:49:46;8.88;;;4.90;;
22851;SDS011;11592;45.460;9.240;2023-05-19T04:52:13;7.18;;;4.97;;
22851;SDS011;11592;45.460;9.240;2023-05-19T04:54:40;8.55;;;4.82;;
22851;SDS011;11592;45.460;9.240;2023-05-19T04:57:07;7.20;;;4.38;;
22851;SDS011;11592;45.460;9.240;2023-05-19T04:59:35;7.18;;;4.53;;
22851;SDS011;11592;45.460;9.240;2023-05-19T05:02:02;7.57;;;5.03;;
22851;SDS011;11592;45.460;9.240;2023-05-19T05:04:29;10.57;;;4.55;;
22851;SDS011;11592;45.460;9.240;2023-05-19T05:06:56;8.77;;;4.85;;
22851;SDS011;11592;45.460;9.240;2023-05-19T05:09:23;8.93;;;4.78;;
22851;SDS011;11592;45.460;9.240;2023-05-19T05:11:50;11.25;;;5.40;;
22851;SDS011;11592;45.460;9.240;2023-05-19T05:14:17;8.18;;;4.75;;
22851;SDS011;11592;45.460;9.240;2023-05-19T05:16:44;9.77;;;4.80;;
22851;SDS011;11592;45.460;9.240;2023-05-19T05:19:11;9.88;;;4.72;;
22851;SDS011;11592;45.460;9.240;2023-05-19T05:21:38;8.25;;;4.57;;
22851;SDS011;11592;45.460;9.240;2023-05-19T05:24:07;7.85;;;4.55;;
22851;SDS011;11592;45.460;9.240;2023-05-19T05:26:34;7.72;;;4.40;;
22851;SDS011;11592;45.460;9.240;2023-05-19T05:29:01;6.75;;;3.90;;
22851;SDS011;11592;45.460;9.240;2023-05-19T05:31:28;7.60;;;4.05;;
22851;SDS011;11592;45.460;9.240;2023-05-19T05:33:56;7.53;;;4.20;;
22851;SDS011;11592;45.460;9.240;2023-05-19T05:36:23;7.53;;;4.55;;
22851;SDS011;11592;45.460;9.240;2023-05-19T05:38:50;8.30;;;4.07;;
22851;SDS011;11592;45.460;9.240;2023-05-19T05:41:17;7.10;;;3.85;;
22851;SDS011;11592;45.460;9.240;2023-05-19T05:43:44;9.60;;;4.63;;
22851;SDS011;11592;45.460;9.240;2023-05-19T05:46:10;8.07;;;4.15;;
22851;SDS011;11592;45.460;9.240;2023-05-19T05:48:37;8.38;;;4.10;;
22851;SDS011;11592;45.460;9.240;2023-05-19T05:51:07;7.00;;;4.38;;
22851;SDS011;11592;45.460;9.240;2023-05-19T05:53:35;8.50;;;4.38;;
22851;SDS011;11592;45.460;9.240;2023-05-19T05:56:07;6.95;;;4.47;;
22851;SDS011;11592;45.460;9.240;2023-05-19T05:58:34;8.43;;;4.50;;
22851;SDS011;11592;45.460;9.240;2023-05-19T06:01:03;8.32;;;4.95;;
22851;SDS011;11592;45.460;9.240;2023-05-19T06:03:30;7.75;;;4.85;;
22851;SDS011;11592;45.460;9.240;2023-05-19T06:05:58;6.50;;;4.40;;
22851;SDS011;11592;45.460;9.240;2023-05-19T06:08:26;9.13;;;5.10;;
22851;SDS011;11592;45.460;9.240;2023-05-19T06:10:53;8.50;;;5.10;;
22851;SDS011;11592;45.460;9.240;2023-05-19T06:13:20;20.98;;;7.65;;
22851;SDS011;11592;45.460;9.240;2023-05-19T06:15:49;7.15;;;4.60;;
22851;SDS011;11592;45.460;9.240;2023-05-19T06:18:16;11.38;;;5.00;;
22851;SDS011;11592;45.460;9.240;2023-05-19T06:20:43;10.30;;;4.53;;
22851;SDS011;11592;45.460;9.240;2023-05-19T06:23:10;8.32;;;4.90;;
22851;SDS011;11592;45.460;9.240;2023-05-19T06:25:37;8.27;;;4.80;;
22851;SDS011;11592;45.460;9.240;2023-05-19T06:28:04;8.80;;;5.30;;
22851;SDS011;11592;45.460;9.240;2023-05-19T06:30:31;12.50;;;5.25;;
22851;SDS011;11592;45.460;9.240;2023-05-19T06:32:58;9.73;;;5.60;;
22851;SDS011;11592;45.460;9.240;2023-05-19T06:35:25;10.52;;;5.25;;
22851;SDS011;11592;45.460;9.240;2023-05-19T06:37:51;8.35;;;5.28;;
22851;SDS011;11592;45.460;9.240;2023-05-19T06:40:18;6.93;;;5.05;;
22851;SDS011;11592;45.460;9.240;2023-05-19T06:42:45;8.98;;;5.47;;
22851;SDS011;11592;45.460;9.240;2023-05-19T06:45:12;10.57;;;5.22;;
22851;SDS011;11592;45.460;9.240;2023-05-19T06:47:39;10.45;;;5.43;;
22851;SDS011;11592;45.460;9.240;2023-05-19T06:50:08;10.68;;;5.75;;
22851;SDS011;11592;45.460;9.240;2023-05-19T06:52:35;11.23;;;6.05;;
22851;SDS011;11592;45.460;9.240;2023-05-19T06:55:02;11.38;;;6.15;;
22851;SDS011;11592;45.460;9.240;2023-05-19T06:57:29;14.68;;;5.95;;
22851;SDS011;11592;45.460;9.240;2023-05-19T06:59:56;10.07;;;5.88;;
22851;SDS011;11592;45.460;9.240;2023-05-19T07:02:23;13.65;;;6.15;;
22851;SDS011;11592;45.460;9.240;2023-05-19T07:04:50;11.20;;;6.43;;
22851;SDS011;11592;45.460;9.240;2023-05-19T07:07:17;11.27;;;6.47;;
22851;SDS011;11592;45.460;9.240;2023-05-19T07:09:44;9.55;;;6.07;;
22851;SDS011;11592;45.460;9.240;2023-05-19T07:12:11;10.63;;;6.55;;
22851;SDS011;11592;45.460;9.240;2023-05-19T07:14:38;9.55;;;6.05;;
22851;SDS011;11592;45.460;9.240;2023-05-19T07:17:05;9.25;;;5.90;;
22851;SDS011;11592;45.460;9.240;2023-05-19T07:19:32;11.00;;;6.22;;
22851;SDS011;11592;45.460;9.240;2023-05-19T07:21:59;10.93;;;6.25;;
22851;SDS011;11592;45.460;9.240;2023-05-19T07:24:25;9.80;;;6.57;;
22851;SDS011;11592;45.460;9.240;2023-05-19T07:26:52;11.25;;;5.50;;
22851;SDS011;11592;45.460;9.240;2023-05-19T07:29:19;11.63;;;6.20;;
22851;SDS011;11592;45.460;9.240;2023-05-19T07:31:46;11.73;;;6.30;;
22851;SDS011;11592;45.460;9.240;2023-05-19T07:34:13;9.75;;;6.18;;
22851;SDS011;11592;45.460;9.240;2023-05-19T07:36:40;10.60;;;6.05;;
22851;SDS011;11592;45.460;9.240;2023-05-19T07:39:07;13.82;;;6.60;;
22851;SDS011;11592;45.460;9.240;2023-05-19T07:41:34;11.10;;;5.82;;
22851;SDS011;11592;45.460;9.240;2023-05-19T07:44:01;11.10;;;5.85;;
22851;SDS011;11592;45.460;9.240;2023-05-19T07:46:36;13.45;;;6.50;;
22851;SDS011;11592;45.460;9.240;2023-05-19T07:49:03;14.32;;;6.88;;
22851;SDS011;11592;45.460;9.240;2023-05-19T07:51:30;13.52;;;5.85;;
22851;SDS011;11592;45.460;9.240;2023-05-19T07:53:57;10.00;;;6.32;;
22851;SDS011;11592;45.460;9.240;2023-05-19T07:56:23;11.40;;;6.18;;
22851;SDS011;11592;45.460;9.240;2023-05-19T07:58:50;9.68;;;5.95;;
22851;SDS011;11592;45.460;9.240;2023-05-19T08:01:17;9.30;;;5.18;;
22851;SDS011;11592;45.460;9.240;2023-05-19T08:03:44;12.05;;;5.78;;
22851;SDS011;11592;45.460;9.240;2023-05-19T08:06:11;12.55;;;5.70;;
22851;SDS011;11592;45.460;9.240;2023-05-19T08:08:38;11.77;;;6.00;;
22851;SDS011;11592;45.460;9.240;2023-05-19T08:11:05;10.52;;;6.22;;
22851;SDS011;11592;45.460;9.240;2023-05-19T08:13:31;14.00;;;6.25;;
22851;SDS011;11592;45.460;9.240;2023-05-19T08:15:59;11.02;;;6.50;;
22851;SDS011;11592;45.460;9.240;2023-05-19T08:18:26;9.77;;;5.68;;
22851;SDS011;11592;45.460;9.240;2023-05-19T08:20:53;12.73;;;5.88;;
22851;SDS011;11592;45.460;9.240;2023-05-19T08:23:20;10.77;;;5.88;;
22851;SDS011;11592;45.460;9.240;2023-05-19T08:25:48;12.45;;;6.35;;
22851;SDS011;11592;45.460;9.240;2023-05-19T08:28:14;9.90;;;5.88;;
22851;SDS011;11592;45.460;9.240;2023-05-19T08:30:41;12.20;;;5.53;;
22851;SDS011;11592;45.460;9.240;2023-05-19T08:33:08;12.50;;;5.30;;
22851;SDS011;11592;45.460;9.240;2023-05-19T08:35:35;10.98;;;5.88;;
22851;SDS011;11592;45.460;9.240;2023-05-19T08:38:02;12.13;;;5.70;;
22851;SDS011;11592;45.460;9.240;2023-05-19T08:40:29;9.43;;;5.75;;
22851;SDS011;11592;45.460;9.240;2023-05-19T08:42:57;11.02;;;5.90;;
22851;SDS011;11592;45.460;9.240;2023-05-19T08:45:24;9.85;;;6.20;;
22851;SDS011;11592;45.460;9.240;2023-05-19T08:47:52;13.73;;;6.07;;
22851;SDS011;11592;45.460;9.240;2023-05-19T08:50:23;10.32;;;5.90;;
22851;SDS011;11592;45.460;9.240;2023-05-19T08:55:49;9.90;;;5.63;;
22851;SDS011;11592;45.460;9.240;2023-05-19T08:58:40;12.10;;;5.53;;
22851;SDS011;11592;45.460;9.240;2023-05-19T09:01:09;10.43;;;6.55;;
22851;SDS011;11592;45.460;9.240;2023-05-19T09:03:43;15.05;;;6.90;;
22851;SDS011;11592;45.460;9.240;2023-05-19T09:06:11;10.88;;;6.35;;
22851;SDS011;11592;45.460;9.240;2023-05-19T09:08:38;14.57;;;6.10;;
22851;SDS011;11592;45.460;9.240;2023-05-19T09:11:07;12.85;;;7.03;;
22851;SDS011;11592;45.460;9.240;2023-05-19T09:13:35;11.40;;;7.47;;
22851;SDS011;11592;45.460;9.240;2023-05-19T09:16:02;14.65;;;7.50;;
22851;SDS011;11592;45.460;9.240;2023-05-19T09:18:29;10.77;;;6.93;;
22851;SDS011;11592;45.460;9.240;2023-05-19T09:20:57;17.40;;;7.22;;
22851;SDS011;11592;45.460;9.240;2023-05-19T09:23:29;13.35;;;7.03;;
22851;SDS011;11592;45.460;9.240;2023-05-19T09:26:02;17.77;;;7.28;;
22851;SDS011;11592;45.460;9.240;2023-05-19T09:28:33;10.88;;;7.10;;
22851;SDS011;11592;45.460;9.240;2023-05-19T09:31:02;12.13;;;7.07;;
22851;SDS011;11592;45.460;9.240;2023-05-19T09:33:29;14.55;;;7.82;;
22851;SDS011;11592;45.460;9.240;2023-05-19T09:35:58;11.60;;;7.03;;
22851;SDS011;11592;45.460;9.240;2023-05-19T09:38:26;11.43;;;7.60;;
22851;SDS011;11592;45.460;9.240;2023-05-19T09:40:56;18.25;;;7.50;;
22851;SDS011;11592;45.460;9.240;2023-05-19T09:43:27;13.30;;;7.65;;
22851;SDS011;11592;45.460;9.240;2023-05-19T09:45:59;11.20;;;7.15;;
22851;SDS011;11592;45.460;9.240;2023-05-19T09:48:26;11.20;;;7.03;;
22851;SDS011;11592;45.460;9.240;2023-05-19T09:50:53;15.07;;;7.38;;
22851;SDS011;11592;45.460;9.240;2023-05-19T09:53:21;10.55;;;7.10;;
22851;SDS011;11592;45.460;9.240;2023-05-19T09:55:50;10.55;;;6.93;;
22851;SDS011;11592;45.460;9.240;2023-05-19T09:58:24;15.60;;;7.80;;
22851;SDS011;11592;45.460;9.240;2023-05-19T10:00:52;10.80;;;6.85;;
22851;SDS011;11592;45.460;9.240;2023-05-19T10:03:23;11.32;;;7.85;;
22851;SDS011;11592;45.460;9.240;2023-05-19T10:05:51;14.18;;;7.13;;
22851;SDS011;11592;45.460;9.240;2023-05-19T10:08:19;12.98;;;6.97;;
22851;SDS011;11592;45.460;9.240;2023-05-19T10:10:46;10.02;;;6.63;;
22851;SDS011;11592;45.460;9.240;2023-05-19T10:13:13;10.55;;;6.68;;
22851;SDS011;11592;45.460;9.240;2023-05-19T10:15:41;10.90;;;7.10;;
22851;SDS011;11592;45.460;9.240;2023-05-19T10:18:23;12.32;;;7.93;;
22851;SDS011;11592;45.460;9.240;2023-05-19T10:20:52;12.43;;;7.25;;
22851;SDS011;11592;45.460;9.240;2023-05-19T10:23:19;11.95;;;7.50;;
22851;SDS011;11592;45.460;9.240;2023-05-19T10:25:47;13.40;;;6.90;;
22851;SDS011;11592;45.460;9.240;2023-05-19T10:28:16;11.40;;;6.80;;
22851;SDS011;11592;45.460;9.240;2023-05-19T10:30:47;16.98;;;7.88;;
22851;SDS011;11592;45.460;9.240;2023-05-19T10:33:16;11.82;;;5.97;;
22851;SDS011;11592;45.460;9.240;2023-05-19T10:47:01;9.25;;;5.60;;
22851;SDS011;11592;45.460;9.240;2023-05-19T10:49:35;11.40;;;5.45;;
22851;SDS011;11592;45.460;9.240;2023-05-19T10:52:03;11.15;;;5.82;;
22851;SDS011;11592;45.460;9.240;2023-05-19T10:54:43;11.20;;;5.75;;
22851;SDS011;11592;45.460;9.240;2023-05-19T10:57:17;8.45;;;6.25;;
22851;SDS011;11592;45.460;9.240;2023-05-19T10:59:46;12.20;;;6.60;;
22851;SDS011;11592;45.460;9.240;2023-05-19T11:05:08;8.18;;;5.40;;
22851;SDS011;11592;45.460;9.240;2023-05-19T11:07:39;9.35;;;6.00;;
22851;SDS011;11592;45.460;9.240;2023-05-19T11:10:08;9.70;;;6.25;;
22851;SDS011;11592;45.460;9.240;2023-05-19T11:12:44;9.25;;;5.95;;
22851;SDS011;11592;45.460;9.240;2023-05-19T11:15:12;9.57;;;6.43;;
22851;SDS011;11592;45.460;9.240;2023-05-19T11:17:41;12.93;;;6.68;;
22851;SDS011;11592;45.460;9.240;2023-05-19T11:20:23;10.55;;;6.70;;
22851;SDS011;11592;45.460;9.240;2023-05-19T11:28:14;17.05;;;8.27;;
22851;SDS011;11592;45.460;9.240;2023-05-19T11:30:45;14.43;;;9.18;;
22851;SDS011;11592;45.460;9.240;2023-05-19T11:33:17;11.85;;;7.75;;
22851;SDS011;11592;45.460;9.240;2023-05-19T11:35:45;15.20;;;8.68;;
22851;SDS011;11592;45.460;9.240;2023-05-19T11:38:15;16.27;;;9.75;;
22851;SDS011;11592;45.460;9.240;2023-05-19T11:40:44;14.02;;;8.57;;
22851;SDS011;11592;45.460;9.240;2023-05-19T11:43:12;14.75;;;9.55;;
22851;SDS011;11592;45.460;9.240;2023-05-19T11:45:39;13.98;;;9.25;;
22851;SDS011;11592;45.460;9.240;2023-05-19T11:48:06;13.88;;;9.35;;
22851;SDS011;11592;45.460;9.240;2023-05-19T11:50:36;15.00;;;9.65;;
22851;SDS011;11592;45.460;9.240;2023-05-19T11:53:06;16.67;;;9.95;;
22851;SDS011;11592;45.460;9.240;2023-05-19T11:55:33;13.43;;;9.18;;
22851;SDS011;11592;45.460;9.240;2023-05-19T11:58:00;14.18;;;9.43;;
22851;SDS011;11592;45.460;9.240;2023-05-19T12:00:35;13.05;;;8.52;;
22851;SDS011;11592;45.460;9.240;2023-05-19T12:03:05;12.70;;;8.40;;
22851;SDS011;11592;45.460;9.240;2023-05-19T12:05:35;13.20;;;8.45;;
22851;SDS011;11592;45.460;9.240;2023-05-19T12:08:08;12.98;;;8.15;;
22851;SDS011;11592;45.460;9.240;2023-05-19T12:10:37;13.27;;;7.65;;
22851;SDS011;11592;45.460;9.240;2023-05-19T12:13:04;17.00;;;9.68;;
22851;SDS011;11592;45.460;9.240;2023-05-19T12:15:34;11.27;;;8.10;;
22851;SDS011;11592;45.460;9.240;2023-05-19T12:18:02;17.23;;;9.35;;
22851;SDS011;11592;45.460;9.240;2023-05-19T12:20:29;13.80;;;8.80;;
22851;SDS011;11592;45.460;9.240;2023-05-19T12:23:01;14.07;;;9.43;;
22851;SDS011;11592;45.460;9.240;2023-05-19T12:25:29;17.60;;;9.18;;
22851;SDS011;11592;45.460;9.240;2023-05-19T12:27:57;15.68;;;9.85;;
22851;SDS011;11592;45.460;9.240;2023-05-19T12:30:26;13.82;;;9.38;;
22851;SDS011;11592;45.460;9.240;2023-05-19T12:32:57;13.90;;;8.75;;
22851;SDS011;11592;45.460;9.240;2023-05-19T12:35:30;11.48;;;8.23;;
22851;SDS011;11592;45.460;9.240;2023-05-19T12:38:02;13.23;;;8.38;;
22851;SDS011;11592;45.460;9.240;2023-05-19T12:40:30;13.43;;;7.97;;
22851;SDS011;11592;45.460;9.240;2023-05-19T12:42:58;15.68;;;8.15;;
22851;SDS011;11592;45.460;9.240;2023-05-19T12:45:25;12.77;;;8.90;;
22851;SDS011;11592;45.460;9.240;2023-05-19T12:47:54;12.70;;;8.88;;
22851;SDS011;11592;45.460;9.240;2023-05-19T12:50:21;15.57;;;8.75;;
22851;SDS011;11592;45.460;9.240;2023-05-19T12:55:25;12.68;;;8.88;;
22851;SDS011;11592;45.460;9.240;2023-05-19T12:57:52;15.73;;;9.13;;
22851;SDS011;11592;45.460;9.240;2023-05-19T13:00:22;12.68;;;8.90;;
22851;SDS011;11592;45.460;9.240;2023-05-19T13:02:59;11.95;;;9.38;;
22851;SDS011;11592;45.460;9.240;2023-05-19T13:05:28;16.48;;;10.00;;
22851;SDS011;11592;45.460;9.240;2023-05-19T13:07:57;15.25;;;9.45;;
22851;SDS011;11592;45.460;9.240;2023-05-19T13:10:25;15.02;;;9.23;;
22851;SDS011;11592;45.460;9.240;2023-05-19T13:12:56;16.70;;;10.00;;
22851;SDS011;11592;45.460;9.240;2023-05-19T13:15:25;13.65;;;9.38;;
22851;SDS011;11592;45.460;9.240;2023-05-19T13:17:54;15.48;;;10.88;;
22851;SDS011;11592;45.460;9.240;2023-05-19T13:20:21;16.75;;;10.05;;
22851;SDS011;11592;45.460;9.240;2023-05-19T13:22:50;16.58;;;10.10;;
22851;SDS011;11592;45.460;9.240;2023-05-19T13:25:17;15.25;;;9.52;;
22851;SDS011;11592;45.460;9.240;2023-05-19T13:27:44;14.63;;;10.13;;
22851;SDS011;11592;45.460;9.240;2023-05-19T13:30:12;16.88;;;11.05;;
22851;SDS011;11592;45.460;9.240;2023-05-19T13:32:41;18.30;;;10.98;;
22851;SDS011;11592;45.460;9.240;2023-05-19T13:35:08;15.93;;;9.93;;
22851;SDS011;11592;45.460;9.240;2023-05-19T13:37:35;20.58;;;11.75;;
22851;SDS011;11592;45.460;9.240;2023-05-19T13:40:03;17.98;;;11.48;;
22851;SDS011;11592;45.460;9.240;2023-05-19T13:42:31;16.38;;;10.38;;
22851;SDS011;11592;45.460;9.240;2023-05-19T13:44:58;17.80;;;11.10;;
22851;SDS011;11592;45.460;9.240;2023-05-19T13:47:25;17.73;;;11.07;;
22851;SDS011;11592;45.460;9.240;2023-05-19T13:49:52;15.75;;;10.38;;
22851;SDS011;11592;45.460;9.240;2023-05-19T13:52:19;17.80;;;11.48;;
22851;SDS011;11592;45.460;9.240;2023-05-19T13:54:47;17.70;;;11.05;;
22851;SDS011;11592;45.460;9.240;2023-05-19T13:57:17;17.48;;;10.63;;
22851;SDS011;11592;45.460;9.240;2023-05-19T13:59:43;16.83;;;11.27;;
22851;SDS011;11592;45.460;9.240;2023-05-19T14:02:26;19.23;;;12.02;;
22851;SDS011;11592;45.460;9.240;2023-05-19T14:04:55;18.75;;;11.60;;
22851;SDS011;11592;45.460;9.240;2023-05-19T14:07:22;17.88;;;10.88;;
22851;SDS011;11592;45.460;9.240;2023-05-19T14:09:50;17.15;;;11.25;;
22851;SDS011;11592;45.460;9.240;2023-05-19T14:12:17;16.13;;;11.18;;
22851;SDS011;11592;45.460;9.240;2023-05-19T14:14:48;17.30;;;11.40;;
22851;SDS011;11592;45.460;9.240;2023-05-19T14:17:15;16.25;;;11.13;;
22851;SDS011;11592;45.460;9.240;2023-05-19T14:19:42;17.17;;;11.55;;
22851;SDS011;11592;45.460;9.240;2023-05-19T14:22:09;18.60;;;11.57;;
22851;SDS011;11592;45.460;9.240;2023-05-19T14:24:35;17.42;;;10.93;;
22851;SDS011;11592;45.460;9.240;2023-05-19T14:27:02;16.25;;;10.90;;
22851;SDS011;11592;45.460;9.240;2023-05-19T14:29:29;19.17;;;10.73;;
22851;SDS011;11592;45.460;9.240;2023-05-19T14:31:56;14.93;;;9.88;;
22851;SDS011;11592;45.460;9.240;2023-05-19T14:34:23;17.88;;;10.82;;
22851;SDS011;11592;45.460;9.240;2023-05-19T14:36:50;15.23;;;9.25;;
22851;SDS011;11592;45.460;9.240;2023-05-19T14:39:16;15.55;;;9.57;;
22851;SDS011;11592;45.460;9.240;2023-05-19T14:41:43;15.95;;;9.68;;
22851;SDS011;11592;45.460;9.240;2023-05-19T14:44:10;16.23;;;9.73;;
22851;SDS011;11592;45.460;9.240;2023-05-19T14:46:37;12.90;;;9.35;;
22851;SDS011;11592;45.460;9.240;2023-05-19T14:49:04;16.50;;;9.55;;
22851;SDS011;11592;45.460;9.240;2023-05-19T14:51:31;12.20;;;8.38;;
22851;SDS011;11592;45.460;9.240;2023-05-19T14:53:58;11.85;;;7.90;;
22851;SDS011;11592;45.460;9.240;2023-05-19T14:56:26;13.48;;;8.32;;
22851;SDS011;11592;45.460;9.240;2023-05-19T14:58:53;12.38;;;8.18;;
22851;SDS011;11592;45.460;9.240;2023-05-19T15:01:19;13.82;;;8.27;;
22851;SDS011;11592;45.460;9.240;2023-05-19T15:03:46;13.90;;;9.00;;
22851;SDS011;11592;45.460;9.240;2023-05-19T15:06:13;17.48;;;8.60;;
22851;SDS011;11592;45.460;9.240;2023-05-19T15:08:40;14.30;;;9.45;;
22851;SDS011;11592;45.460;9.240;2023-05-19T15:11:07;14.73;;;9.68;;
22851;SDS011;11592;45.460;9.240;2023-05-19T15:13:34;14.38;;;9.07;;
22851;SDS011;11592;45.460;9.240;2023-05-19T15:16:00;13.65;;;10.07;;
22851;SDS011;11592;45.460;9.240;2023-05-19T15:18:43;15.40;;;9.52;;
22851;SDS011;11592;45.460;9.240;2023-05-19T15:21:10;17.42;;;9.05;;
22851;SDS011;11592;45.460;9.240;2023-05-19T15:23:36;13.43;;;7.57;;
22851;SDS011;11592;45.460;9.240;2023-05-19T15:26:03;9.93;;;6.32;;
22851;SDS011;11592;45.460;9.240;2023-05-19T15:28:30;11.20;;;7.07;;
22851;SDS011;11592;45.460;9.240;2023-05-19T15:30:57;15.50;;;7.68;;
22851;SDS011;11592;45.460;9.240;2023-05-19T15:33:24;15.60;;;7.35;;